sensor_id;sensor_type;location;lat;lon;timestamp;P1;durP1;ratioP1;P2;durP2;ratioP2
77359;SDS011;66426;51.454;7.266;2023-05-07T00:00:52;6.07;;;3.38;;
77359;SDS011;66426;51.454;7.266;2023-05-07T00:01:54;7.85;;;3.53;;
77359;SDS011;66426;51.454;7.266;2023-05-07T00:02:56;6.07;;;3.63;;
77359;SDS011;66426;51.454;7.266;2023-05-07T00:03:57;4.07;;;3.08;;
77359;SDS011;66426;51.454;7.266;2023-05-07T00:04:58;5.18;;;3.88;;
77359;SDS011;66426;51.454;7.266;2023-05-07T00:05:58;6.60;;;3.63;;
77359;SDS011;66426;51.454;7.266;2023-05-07T00:07:00;5.05;;;3.35;;
77359;SDS011;66426;51.454;7.266;2023-05-07T00:08:01;4.20;;;3.05;;
77359;SDS011;66426;51.454;7.266;2023-05-07T00:09:02;4.38;;;3.28;;
77359;SDS011;66426;51.454;7.266;2023-05-07T00:10:04;5.53;;;3.40;;
77359;SDS011;66426;51.454;7.266;2023-05-07T00:11:07;7.18;;;3.60;;
77359;SDS011;66426;51.454;7.266;2023-05-07T00:12:09;5.68;;;3.80;;
77359;SDS011;66426;51.454;7.266;2023-05-07T00:13:10;7.45;;;3.60;;
77359;SDS011;66426;51.454;7.266;2023-05-07T00:14:11;7.40;;;3.97;;
77359;SDS011;66426;51.454;7.266;2023-05-07T00:15:12;5.43;;;3.55;;
77359;SDS011;66426;51.454;7.266;2023-05-07T00:16:13;6.70;;;3.60;;
77359;SDS011;66426;51.454;7.266;2023-05-07T00:17:14;5.03;;;3.70;;
77359;SDS011;66426;51.454;7.266;2023-05-07T00:18:15;6.25;;;3.90;;
77359;SDS011;66426;51.454;7.266;2023-05-07T00:19:16;8.82;;;3.88;;
77359;SDS011;66426;51.454;7.266;2023-05-07T00:20:17;5.85;;;3.83;;
77359;SDS011;66426;51.454;7.266;2023-05-07T00:21:18;6.63;;;3.40;;
77359;SDS011;66426;51.454;7.266;2023-05-07T00:22:18;8.43;;;4.07;;
77359;SDS011;66426;51.454;7.266;2023-05-07T00:23:19;5.57;;;3.63;;
77359;SDS011;66426;51.454;7.266;2023-05-07T00:24:20;7.10;;;4.07;;
77359;SDS011;66426;51.454;7.266;2023-05-07T00:25:21;6.95;;;4.50;;
77359;SDS011;66426;51.454;7.266;2023-05-07T00:26:22;8.05;;;4.13;;
77359;SDS011;66426;51.454;7.266;2023-05-07T00:27:24;6.40;;;4.15;;
77359;SDS011;66426;51.454;7.266;2023-05-07T00:28:25;8.52;;;4.25;;
77359;SDS011;66426;51.454;7.266;2023-05-07T00:29:26;6.90;;;4.15;;
77359;SDS011;66426;51.454;7.266;2023-05-07T00:30:27;5.47;;;3.90;;
77359;SDS011;66426;51.454;7.266;2023-05-07T00:31:28;6.63;;;3.90;;
77359;SDS011;66426;51.454;7.266;2023-05-07T00:32:29;8.15;;;4.63;;
77359;SDS011;66426;51.454;7.266;2023-05-07T00:33:30;6.03;;;4.47;;
77359;SDS011;66426;51.454;7.266;2023-05-07T00:34:31;8.02;;;4.28;;
77359;SDS011;66426;51.454;7.266;2023-05-07T00:35:31;7.07;;;4.70;;
77359;SDS011;66426;51.454;7.266;2023-05-07T00:36:32;5.78;;;4.15;;
77359;SDS011;66426;51.454;7.266;2023-05-07T00:37:33;7.05;;;3.92;;
77359;SDS011;66426;51.454;7.266;2023-05-07T00:38:34;5.90;;;3.97;;
77359;SDS011;66426;51.454;7.266;2023-05-07T00:39:35;6.32;;;4.10;;
77359;SDS011;66426;51.454;7.266;2023-05-07T00:40:36;7.47;;;4.20;;
77359;SDS011;66426;51.454;7.266;2023-05-07T00:41:37;6.55;;;4.03;;
77359;SDS011;66426;51.454;7.266;2023-05-07T00:42:39;5.40;;;3.95;;
77359;SDS011;66426;51.454;7.266;2023-05-07T00:43:40;6.00;;;4.18;;
77359;SDS011;66426;51.454;7.266;2023-05-07T00:44:41;5.95;;;4.00;;
77359;SDS011;66426;51.454;7.266;2023-05-07T00:45:42;6.85;;;4.13;;
77359;SDS011;66426;51.454;7.266;2023-05-07T00:46:43;17.40;;;4.57;;
77359;SDS011;66426;51.454;7.266;2023-05-07T00:47:45;6.10;;;3.85;;
77359;SDS011;66426;51.454;7.266;2023-05-07T00:48:46;6.32;;;4.13;;
77359;SDS011;66426;51.454;7.266;2023-05-07T00:49:48;5.55;;;4.10;;
77359;SDS011;66426;51.454;7.266;2023-05-07T00:50:49;6.32;;;4.25;;
77359;SDS011;66426;51.454;7.266;2023-05-07T00:51:50;8.38;;;4.03;;
77359;SDS011;66426;51.454;7.266;2023-05-07T00:52:52;7.22;;;4.15;;
77359;SDS011;66426;51.454;7.266;2023-05-07T00:53:53;7.30;;;4.38;;
77359;SDS011;66426;51.454;7.266;2023-05-07T00:54:54;6.82;;;4.68;;
77359;SDS011;66426;51.454;7.266;2023-05-07T00:55:55;9.27;;;4.82;;
77359;SDS011;66426;51.454;7.266;2023-05-07T00:56:57;7.47;;;5.30;;
77359;SDS011;66426;51.454;7.266;2023-05-07T00:57:59;7.75;;;4.85;;
77359;SDS011;66426;51.454;7.266;2023-05-07T00:59:00;8.43;;;4.75;;
77359;SDS011;66426;51.454;7.266;2023-05-07T01:00:02;6.65;;;4.75;;
77359;SDS011;66426;51.454;7.266;2023-05-07T01:01:04;7.60;;;4.60;;
77359;SDS011;66426;51.454;7.266;2023-05-07T01:02:05;7.88;;;4.85;;
77359;SDS011;66426;51.454;7.266;2023-05-07T01:03:06;8.23;;;4.50;;
77359;SDS011;66426;51.454;7.266;2023-05-07T01:04:07;7.78;;;4.38;;
77359;SDS011;66426;51.454;7.266;2023-05-07T01:05:09;7.03;;;4.43;;
77359;SDS011;66426;51.454;7.266;2023-05-07T01:06:13;7.75;;;4.80;;
77359;SDS011;66426;51.454;7.266;2023-05-07T01:07:17;8.43;;;4.85;;
77359;SDS011;66426;51.454;7.266;2023-05-07T01:08:18;7.70;;;4.53;;
77359;SDS011;66426;51.454;7.266;2023-05-07T01:09:19;6.10;;;4.07;;
77359;SDS011;66426;51.454;7.266;2023-05-07T01:10:21;6.50;;;4.15;;
77359;SDS011;66426;51.454;7.266;2023-05-07T01:11:22;7.75;;;4.60;;
77359;SDS011;66426;51.454;7.266;2023-05-07T01:12:24;7.57;;;4.60;;
77359;SDS011;66426;51.454;7.266;2023-05-07T01:13:27;5.80;;;4.00;;
77359;SDS011;66426;51.454;7.266;2023-05-07T01:14:28;6.45;;;4.57;;
77359;SDS011;66426;51.454;7.266;2023-05-07T01:15:31;6.28;;;4.05;;
77359;SDS011;66426;51.454;7.266;2023-05-07T01:16:32;7.43;;;4.28;;
77359;SDS011;66426;51.454;7.266;2023-05-07T01:17:33;6.97;;;4.35;;
77359;SDS011;66426;51.454;7.266;2023-05-07T01:18:35;6.60;;;4.57;;
77359;SDS011;66426;51.454;7.266;2023-05-07T01:19:36;6.50;;;4.50;;
77359;SDS011;66426;51.454;7.266;2023-05-07T01:20:37;8.13;;;4.25;;
77359;SDS011;66426;51.454;7.266;2023-05-07T01:21:38;6.63;;;4.40;;
77359;SDS011;66426;51.454;7.266;2023-05-07T01:22:40;7.70;;;4.95;;
77359;SDS011;66426;51.454;7.266;2023-05-07T01:23:43;7.65;;;4.80;;
77359;SDS011;66426;51.454;7.266;2023-05-07T01:24:45;6.82;;;4.47;;
77359;SDS011;66426;51.454;7.266;2023-05-07T01:25:50;5.85;;;4.32;;
77359;SDS011;66426;51.454;7.266;2023-05-07T01:26:52;6.97;;;4.22;;
77359;SDS011;66426;51.454;7.266;2023-05-07T01:27:53;7.85;;;4.38;;
77359;SDS011;66426;51.454;7.266;2023-05-07T01:28:54;7.18;;;4.20;;
77359;SDS011;66426;51.454;7.266;2023-05-07T01:29:55;5.97;;;4.35;;
77359;SDS011;66426;51.454;7.266;2023-05-07T01:30:59;7.00;;;4.53;;
77359;SDS011;66426;51.454;7.266;2023-05-07T01:33:06;7.75;;;4.20;;
77359;SDS011;66426;51.454;7.266;2023-05-07T01:34:09;5.93;;;4.40;;
77359;SDS011;66426;51.454;7.266;2023-05-07T01:35:14;8.35;;;4.85;;
77359;SDS011;66426;51.454;7.266;2023-05-07T01:36:19;7.22;;;4.38;;
77359;SDS011;66426;51.454;7.266;2023-05-07T01:37:21;9.63;;;4.82;;
77359;SDS011;66426;51.454;7.266;2023-05-07T01:38:24;7.80;;;4.22;;
77359;SDS011;66426;51.454;7.266;2023-05-07T01:39:25;7.53;;;4.82;;
77359;SDS011;66426;51.454;7.266;2023-05-07T01:40:29;7.07;;;4.70;;
77359;SDS011;66426;51.454;7.266;2023-05-07T01:41:30;9.57;;;4.72;;
77359;SDS011;66426;51.454;7.266;2023-05-07T01:42:31;6.55;;;4.45;;
77359;SDS011;66426;51.454;7.266;2023-05-07T01:43:32;7.85;;;4.32;;
77359;SDS011;66426;51.454;7.266;2023-05-07T01:44:34;7.95;;;4.93;;
77359;SDS011;66426;51.454;7.266;2023-05-07T01:45:35;7.35;;;4.90;;
77359;SDS011;66426;51.454;7.266;2023-05-07T01:46:36;7.18;;;4.72;;
77359;SDS011;66426;51.454;7.266;2023-05-07T01:47:37;7.65;;;4.50;;
77359;SDS011;66426;51.454;7.266;2023-05-07T01:48:39;8.40;;;4.68;;
77359;SDS011;66426;51.454;7.266;2023-05-07T01:49:41;7.63;;;4.85;;
77359;SDS011;66426;51.454;7.266;2023-05-07T01:50:43;6.72;;;4.50;;
77359;SDS011;66426;51.454;7.266;2023-05-07T01:51:44;7.57;;;5.15;;
77359;SDS011;66426;51.454;7.266;2023-05-07T01:52:45;9.35;;;4.78;;
77359;SDS011;66426;51.454;7.266;2023-05-07T01:53:49;7.25;;;4.57;;
77359;SDS011;66426;51.454;7.266;2023-05-07T01:54:51;8.10;;;4.65;;
77359;SDS011;66426;51.454;7.266;2023-05-07T01:55:52;7.50;;;4.60;;
77359;SDS011;66426;51.454;7.266;2023-05-07T01:56:53;10.77;;;4.82;;
77359;SDS011;66426;51.454;7.266;2023-05-07T01:57:53;8.18;;;4.75;;
77359;SDS011;66426;51.454;7.266;2023-05-07T01:58:54;5.63;;;4.22;;
77359;SDS011;66426;51.454;7.266;2023-05-07T01:59:56;9.10;;;4.35;;
77359;SDS011;66426;51.454;7.266;2023-05-07T02:00:56;6.97;;;4.40;;
77359;SDS011;66426;51.454;7.266;2023-05-07T02:01:57;17.63;;;6.55;;
77359;SDS011;66426;51.454;7.266;2023-05-07T02:02:58;7.97;;;5.10;;
77359;SDS011;66426;51.454;7.266;2023-05-07T02:03:59;7.80;;;5.05;;
77359;SDS011;66426;51.454;7.266;2023-05-07T02:05:00;7.13;;;4.82;;
77359;SDS011;66426;51.454;7.266;2023-05-07T02:06:02;7.07;;;4.78;;
77359;SDS011;66426;51.454;7.266;2023-05-07T02:07:03;7.60;;;4.63;;
77359;SDS011;66426;51.454;7.266;2023-05-07T02:08:04;8.00;;;5.47;;
77359;SDS011;66426;51.454;7.266;2023-05-07T02:09:06;7.60;;;4.85;;
77359;SDS011;66426;51.454;7.266;2023-05-07T02:10:09;6.63;;;5.05;;
77359;SDS011;66426;51.454;7.266;2023-05-07T02:11:10;10.77;;;5.68;;
77359;SDS011;66426;51.454;7.266;2023-05-07T02:12:11;8.15;;;4.75;;
77359;SDS011;66426;51.454;7.266;2023-05-07T02:13:12;6.93;;;5.00;;
77359;SDS011;66426;51.454;7.266;2023-05-07T02:14:13;7.03;;;5.07;;
77359;SDS011;66426;51.454;7.266;2023-05-07T02:15:14;8.05;;;5.28;;
77359;SDS011;66426;51.454;7.266;2023-05-07T02:16:15;9.57;;;4.93;;
77359;SDS011;66426;51.454;7.266;2023-05-07T02:17:15;9.00;;;5.10;;
77359;SDS011;66426;51.454;7.266;2023-05-07T02:18:16;6.88;;;4.72;;
77359;SDS011;66426;51.454;7.266;2023-05-07T02:19:17;7.55;;;5.40;;
77359;SDS011;66426;51.454;7.266;2023-05-07T02:20:18;8.00;;;5.35;;
77359;SDS011;66426;51.454;7.266;2023-05-07T02:21:19;7.20;;;5.18;;
77359;SDS011;66426;51.454;7.266;2023-05-07T02:22:20;10.77;;;5.45;;
77359;SDS011;66426;51.454;7.266;2023-05-07T02:23:21;8.73;;;5.57;;
77359;SDS011;66426;51.454;7.266;2023-05-07T02:24:23;9.70;;;5.68;;
77359;SDS011;66426;51.454;7.266;2023-05-07T02:25:24;8.50;;;5.68;;
77359;SDS011;66426;51.454;7.266;2023-05-07T02:26:25;8.02;;;5.50;;
77359;SDS011;66426;51.454;7.266;2023-05-07T02:27:26;8.57;;;5.20;;
77359;SDS011;66426;51.454;7.266;2023-05-07T02:28:27;7.50;;;5.18;;
77359;SDS011;66426;51.454;7.266;2023-05-07T02:29:28;9.02;;;5.43;;
77359;SDS011;66426;51.454;7.266;2023-05-07T02:30:29;8.75;;;5.60;;
77359;SDS011;66426;51.454;7.266;2023-05-07T02:31:29;8.23;;;5.53;;
77359;SDS011;66426;51.454;7.266;2023-05-07T02:32:30;8.82;;;6.03;;
77359;SDS011;66426;51.454;7.266;2023-05-07T02:33:31;9.40;;;5.90;;
77359;SDS011;66426;51.454;7.266;2023-05-07T02:34:32;8.18;;;5.53;;
77359;SDS011;66426;51.454;7.266;2023-05-07T02:35:33;9.35;;;5.90;;
77359;SDS011;66426;51.454;7.266;2023-05-07T02:36:34;7.63;;;5.57;;
77359;SDS011;66426;51.454;7.266;2023-05-07T02:37:35;13.05;;;5.97;;
77359;SDS011;66426;51.454;7.266;2023-05-07T02:38:36;11.35;;;6.00;;
77359;SDS011;66426;51.454;7.266;2023-05-07T02:39:38;9.30;;;5.78;;
77359;SDS011;66426;51.454;7.266;2023-05-07T02:40:39;8.50;;;5.60;;
77359;SDS011;66426;51.454;7.266;2023-05-07T02:41:40;6.78;;;4.95;;
77359;SDS011;66426;51.454;7.266;2023-05-07T02:42:41;7.43;;;5.22;;
77359;SDS011;66426;51.454;7.266;2023-05-07T02:43:42;10.80;;;5.75;;
77359;SDS011;66426;51.454;7.266;2023-05-07T02:44:43;7.32;;;5.25;;
77359;SDS011;66426;51.454;7.266;2023-05-07T02:45:44;9.27;;;5.50;;
77359;SDS011;66426;51.454;7.266;2023-05-07T02:46:45;10.10;;;5.15;;
77359;SDS011;66426;51.454;7.266;2023-05-07T02:47:45;8.18;;;5.43;;
77359;SDS011;66426;51.454;7.266;2023-05-07T02:48:47;7.47;;;5.15;;
77359;SDS011;66426;51.454;7.266;2023-05-07T02:49:48;8.88;;;5.47;;
77359;SDS011;66426;51.454;7.266;2023-05-07T02:50:48;9.52;;;5.63;;
77359;SDS011;66426;51.454;7.266;2023-05-07T02:51:49;7.55;;;5.05;;
77359;SDS011;66426;51.454;7.266;2023-05-07T02:52:50;9.20;;;5.65;;
77359;SDS011;66426;51.454;7.266;2023-05-07T02:53:51;7.82;;;5.30;;
77359;SDS011;66426;51.454;7.266;2023-05-07T02:54:53;9.15;;;5.90;;
77359;SDS011;66426;51.454;7.266;2023-05-07T02:55:55;8.80;;;5.72;;
77359;SDS011;66426;51.454;7.266;2023-05-07T02:56:56;7.80;;;5.78;;
77359;SDS011;66426;51.454;7.266;2023-05-07T02:57:58;9.52;;;5.60;;
77359;SDS011;66426;51.454;7.266;2023-05-07T02:58:58;8.70;;;5.65;;
77359;SDS011;66426;51.454;7.266;2023-05-07T02:59:59;12.98;;;5.80;;
77359;SDS011;66426;51.454;7.266;2023-05-07T03:01:10;9.77;;;5.28;;
77359;SDS011;66426;51.454;7.266;2023-05-07T03:02:11;9.32;;;5.80;;
77359;SDS011;66426;51.454;7.266;2023-05-07T03:03:12;8.70;;;5.57;;
77359;SDS011;66426;51.454;7.266;2023-05-07T03:04:13;8.77;;;5.75;;
77359;SDS011;66426;51.454;7.266;2023-05-07T03:05:14;7.93;;;5.45;;
77359;SDS011;66426;51.454;7.266;2023-05-07T03:06:15;9.27;;;5.53;;
77359;SDS011;66426;51.454;7.266;2023-05-07T03:07:16;9.60;;;5.93;;
77359;SDS011;66426;51.454;7.266;2023-05-07T03:08:17;7.97;;;5.60;;
77359;SDS011;66426;51.454;7.266;2023-05-07T03:09:18;6.97;;;5.45;;
77359;SDS011;66426;51.454;7.266;2023-05-07T03:10:21;8.73;;;6.00;;
77359;SDS011;66426;51.454;7.266;2023-05-07T03:11:22;7.18;;;4.93;;
77359;SDS011;66426;51.454;7.266;2023-05-07T03:12:22;9.60;;;5.65;;
77359;SDS011;66426;51.454;7.266;2023-05-07T03:13:23;11.45;;;5.68;;
77359;SDS011;66426;51.454;7.266;2023-05-07T03:14:24;8.85;;;5.20;;
77359;SDS011;66426;51.454;7.266;2023-05-07T03:15:25;8.40;;;5.68;;
77359;SDS011;66426;51.454;7.266;2023-05-07T03:16:26;9.23;;;6.15;;
77359;SDS011;66426;51.454;7.266;2023-05-07T03:17:27;9.57;;;6.15;;
77359;SDS011;66426;51.454;7.266;2023-05-07T03:18:28;8.65;;;5.50;;
77359;SDS011;66426;51.454;7.266;2023-05-07T03:19:29;9.68;;;5.35;;
77359;SDS011;66426;51.454;7.266;2023-05-07T03:20:31;10.57;;;5.65;;
77359;SDS011;66426;51.454;7.266;2023-05-07T03:21:31;7.82;;;5.43;;
77359;SDS011;66426;51.454;7.266;2023-05-07T03:22:34;10.30;;;5.53;;
77359;SDS011;66426;51.454;7.266;2023-05-07T03:23:35;8.27;;;5.57;;
77359;SDS011;66426;51.454;7.266;2023-05-07T03:24:36;7.30;;;5.60;;
77359;SDS011;66426;51.454;7.266;2023-05-07T03:25:38;10.43;;;5.95;;
77359;SDS011;66426;51.454;7.266;2023-05-07T03:26:39;7.70;;;6.10;;
77359;SDS011;66426;51.454;7.266;2023-05-07T03:27:40;7.35;;;5.45;;
77359;SDS011;66426;51.454;7.266;2023-05-07T03:28:42;7.55;;;5.70;;
77359;SDS011;66426;51.454;7.266;2023-05-07T03:29:43;9.90;;;5.97;;
77359;SDS011;66426;51.454;7.266;2023-05-07T03:30:44;8.93;;;5.75;;
77359;SDS011;66426;51.454;7.266;2023-05-07T03:31:45;9.88;;;5.82;;
77359;SDS011;66426;51.454;7.266;2023-05-07T03:32:45;8.75;;;5.78;;
77359;SDS011;66426;51.454;7.266;2023-05-07T03:33:50;9.32;;;5.80;;
77359;SDS011;66426;51.454;7.266;2023-05-07T03:35:52;9.07;;;5.70;;
77359;SDS011;66426;51.454;7.266;2023-05-07T03:36:52;7.38;;;4.95;;
77359;SDS011;66426;51.454;7.266;2023-05-07T03:37:53;9.23;;;5.85;;
77359;SDS011;66426;51.454;7.266;2023-05-07T03:38:54;9.05;;;6.00;;
77359;SDS011;66426;51.454;7.266;2023-05-07T03:39:55;9.23;;;5.45;;
77359;SDS011;66426;51.454;7.266;2023-05-07T03:40:57;8.10;;;5.28;;
77359;SDS011;66426;51.454;7.266;2023-05-07T03:41:58;9.57;;;5.72;;
77359;SDS011;66426;51.454;7.266;2023-05-07T03:42:59;9.25;;;5.53;;
77359;SDS011;66426;51.454;7.266;2023-05-07T03:44:00;7.47;;;5.07;;
77359;SDS011;66426;51.454;7.266;2023-05-07T03:45:01;10.75;;;5.45;;
77359;SDS011;66426;51.454;7.266;2023-05-07T03:46:02;9.65;;;5.63;;
77359;SDS011;66426;51.454;7.266;2023-05-07T03:47:03;7.60;;;5.45;;
77359;SDS011;66426;51.454;7.266;2023-05-07T03:48:04;8.13;;;5.82;;
77359;SDS011;66426;51.454;7.266;2023-05-07T03:49:05;8.70;;;6.05;;
77359;SDS011;66426;51.454;7.266;2023-05-07T03:50:06;9.73;;;6.13;;
77359;SDS011;66426;51.454;7.266;2023-05-07T03:51:07;11.13;;;7.13;;
77359;SDS011;66426;51.454;7.266;2023-05-07T03:52:08;13.27;;;8.40;;
77359;SDS011;66426;51.454;7.266;2023-05-07T03:53:09;14.98;;;9.05;;
77359;SDS011;66426;51.454;7.266;2023-05-07T03:54:10;12.18;;;8.75;;
77359;SDS011;66426;51.454;7.266;2023-05-07T03:55:11;14.70;;;9.30;;
77359;SDS011;66426;51.454;7.266;2023-05-07T03:56:13;13.07;;;9.52;;
77359;SDS011;66426;51.454;7.266;2023-05-07T03:57:14;17.25;;;9.68;;
77359;SDS011;66426;51.454;7.266;2023-05-07T03:58:15;16.38;;;10.48;;
77359;SDS011;66426;51.454;7.266;2023-05-07T03:59:16;16.35;;;10.15;;
77359;SDS011;66426;51.454;7.266;2023-05-07T04:00:17;17.73;;;10.05;;
77359;SDS011;66426;51.454;7.266;2023-05-07T04:01:20;16.83;;;10.02;;
77359;SDS011;66426;51.454;7.266;2023-05-07T04:02:21;19.58;;;9.45;;
77359;SDS011;66426;51.454;7.266;2023-05-07T04:03:22;17.45;;;10.70;;
77359;SDS011;66426;51.454;7.266;2023-05-07T04:04:23;17.25;;;10.05;;
77359;SDS011;66426;51.454;7.266;2023-05-07T04:05:24;13.93;;;9.70;;
77359;SDS011;66426;51.454;7.266;2023-05-07T04:06:25;14.80;;;9.60;;
77359;SDS011;66426;51.454;7.266;2023-05-07T04:07:26;15.65;;;9.88;;
77359;SDS011;66426;51.454;7.266;2023-05-07T04:08:27;15.85;;;9.48;;
77359;SDS011;66426;51.454;7.266;2023-05-07T04:09:28;16.15;;;9.98;;
77359;SDS011;66426;51.454;7.266;2023-05-07T04:10:29;16.17;;;10.02;;
77359;SDS011;66426;51.454;7.266;2023-05-07T04:11:31;16.67;;;9.18;;
77359;SDS011;66426;51.454;7.266;2023-05-07T04:12:32;15.73;;;9.25;;
77359;SDS011;66426;51.454;7.266;2023-05-07T04:13:34;15.27;;;9.43;;
77359;SDS011;66426;51.454;7.266;2023-05-07T04:14:35;13.95;;;9.73;;
77359;SDS011;66426;51.454;7.266;2023-05-07T04:15:36;13.40;;;9.13;;
77359;SDS011;66426;51.454;7.266;2023-05-07T04:16:37;12.70;;;9.20;;
77359;SDS011;66426;51.454;7.266;2023-05-07T04:17:37;15.50;;;9.55;;
77359;SDS011;66426;51.454;7.266;2023-05-07T04:18:38;14.23;;;9.23;;
77359;SDS011;66426;51.454;7.266;2023-05-07T04:19:39;13.98;;;9.95;;
77359;SDS011;66426;51.454;7.266;2023-05-07T04:20:45;15.52;;;10.23;;
77359;SDS011;66426;51.454;7.266;2023-05-07T04:21:46;14.32;;;8.82;;
77359;SDS011;66426;51.454;7.266;2023-05-07T04:22:47;13.95;;;9.45;;
77359;SDS011;66426;51.454;7.266;2023-05-07T04:23:48;13.65;;;9.40;;
77359;SDS011;66426;51.454;7.266;2023-05-07T04:24:49;16.25;;;9.77;;
77359;SDS011;66426;51.454;7.266;2023-05-07T04:25:50;13.48;;;8.73;;
77359;SDS011;66426;51.454;7.266;2023-05-07T04:26:53;13.85;;;9.00;;
77359;SDS011;66426;51.454;7.266;2023-05-07T04:27:55;13.52;;;9.45;;
77359;SDS011;66426;51.454;7.266;2023-05-07T04:28:56;14.43;;;9.65;;
77359;SDS011;66426;51.454;7.266;2023-05-07T04:29:59;14.63;;;9.07;;
77359;SDS011;66426;51.454;7.266;2023-05-07T04:31:01;13.55;;;9.05;;
77359;SDS011;66426;51.454;7.266;2023-05-07T04:32:02;14.95;;;9.85;;
77359;SDS011;66426;51.454;7.266;2023-05-07T04:33:03;14.23;;;9.05;;
77359;SDS011;66426;51.454;7.266;2023-05-07T04:34:03;15.60;;;10.13;;
77359;SDS011;66426;51.454;7.266;2023-05-07T04:35:05;15.35;;;9.70;;
77359;SDS011;66426;51.454;7.266;2023-05-07T04:36:06;15.20;;;10.52;;
77359;SDS011;66426;51.454;7.266;2023-05-07T04:37:08;14.55;;;9.70;;
77359;SDS011;66426;51.454;7.266;2023-05-07T04:38:09;14.48;;;9.48;;
77359;SDS011;66426;51.454;7.266;2023-05-07T04:39:10;15.43;;;10.60;;
77359;SDS011;66426;51.454;7.266;2023-05-07T04:40:11;13.32;;;9.48;;
77359;SDS011;66426;51.454;7.266;2023-05-07T04:41:12;14.75;;;10.32;;
77359;SDS011;66426;51.454;7.266;2023-05-07T04:42:15;14.60;;;9.93;;
77359;SDS011;66426;51.454;7.266;2023-05-07T04:43:17;15.00;;;9.45;;
77359;SDS011;66426;51.454;7.266;2023-05-07T04:44:18;13.90;;;9.68;;
77359;SDS011;66426;51.454;7.266;2023-05-07T04:45:19;17.40;;;9.30;;
77359;SDS011;66426;51.454;7.266;2023-05-07T04:46:20;12.93;;;9.73;;
77359;SDS011;66426;51.454;7.266;2023-05-07T04:47:21;14.60;;;9.35;;
77359;SDS011;66426;51.454;7.266;2023-05-07T04:48:22;17.25;;;9.98;;
77359;SDS011;66426;51.454;7.266;2023-05-07T04:49:23;14.15;;;9.38;;
77359;SDS011;66426;51.454;7.266;2023-05-07T04:50:24;14.85;;;9.77;;
77359;SDS011;66426;51.454;7.266;2023-05-07T04:51:25;14.90;;;10.35;;
77359;SDS011;66426;51.454;7.266;2023-05-07T04:52:26;13.48;;;9.52;;
77359;SDS011;66426;51.454;7.266;2023-05-07T04:53:27;13.98;;;9.60;;
77359;SDS011;66426;51.454;7.266;2023-05-07T04:54:28;15.48;;;9.38;;
77359;SDS011;66426;51.454;7.266;2023-05-07T04:55:29;15.18;;;9.43;;
77359;SDS011;66426;51.454;7.266;2023-05-07T04:56:30;13.63;;;9.02;;
77359;SDS011;66426;51.454;7.266;2023-05-07T04:57:32;13.10;;;8.93;;
77359;SDS011;66426;51.454;7.266;2023-05-07T04:58:33;13.00;;;9.27;;
77359;SDS011;66426;51.454;7.266;2023-05-07T04:59:34;12.02;;;8.90;;
77359;SDS011;66426;51.454;7.266;2023-05-07T05:00:35;15.57;;;8.85;;
77359;SDS011;66426;51.454;7.266;2023-05-07T05:01:36;11.95;;;8.52;;
77359;SDS011;66426;51.454;7.266;2023-05-07T05:02:37;13.23;;;8.95;;
77359;SDS011;66426;51.454;7.266;2023-05-07T05:03:38;12.95;;;8.75;;
77359;SDS011;66426;51.454;7.266;2023-05-07T05:04:39;13.20;;;8.70;;
77359;SDS011;66426;51.454;7.266;2023-05-07T05:05:40;13.35;;;8.90;;
77359;SDS011;66426;51.454;7.266;2023-05-07T05:06:41;13.65;;;8.98;;
77359;SDS011;66426;51.454;7.266;2023-05-07T05:07:42;13.50;;;8.55;;
77359;SDS011;66426;51.454;7.266;2023-05-07T05:08:43;11.02;;;7.97;;
77359;SDS011;66426;51.454;7.266;2023-05-07T05:09:44;13.68;;;8.60;;
77359;SDS011;66426;51.454;7.266;2023-05-07T05:10:45;11.13;;;7.80;;
77359;SDS011;66426;51.454;7.266;2023-05-07T05:11:46;11.85;;;8.75;;
77359;SDS011;66426;51.454;7.266;2023-05-07T05:12:48;12.05;;;7.93;;
77359;SDS011;66426;51.454;7.266;2023-05-07T05:13:49;12.80;;;7.97;;
77359;SDS011;66426;51.454;7.266;2023-05-07T05:14:50;13.82;;;8.38;;
77359;SDS011;66426;51.454;7.266;2023-05-07T05:15:51;10.88;;;7.70;;
77359;SDS011;66426;51.454;7.266;2023-05-07T05:16:52;11.35;;;7.80;;
77359;SDS011;66426;51.454;7.266;2023-05-07T05:17:53;13.10;;;8.05;;
77359;SDS011;66426;51.454;7.266;2023-05-07T05:18:54;11.88;;;8.02;;
77359;SDS011;66426;51.454;7.266;2023-05-07T05:19:55;10.82;;;7.78;;
77359;SDS011;66426;51.454;7.266;2023-05-07T05:20:56;11.38;;;7.57;;
77359;SDS011;66426;51.454;7.266;2023-05-07T05:21:57;11.25;;;7.85;;
77359;SDS011;66426;51.454;7.266;2023-05-07T05:22:58;12.20;;;7.75;;
77359;SDS011;66426;51.454;7.266;2023-05-07T05:23:59;10.75;;;6.95;;
77359;SDS011;66426;51.454;7.266;2023-05-07T05:25:00;9.55;;;7.20;;
77359;SDS011;66426;51.454;7.266;2023-05-07T05:26:01;11.23;;;7.07;;
77359;SDS011;66426;51.454;7.266;2023-05-07T05:27:02;9.88;;;6.22;;
77359;SDS011;66426;51.454;7.266;2023-05-07T05:28:04;11.48;;;6.90;;
77359;SDS011;66426;51.454;7.266;2023-05-07T05:29:06;9.40;;;6.90;;
77359;SDS011;66426;51.454;7.266;2023-05-07T05:30:08;8.68;;;6.10;;
77359;SDS011;66426;51.454;7.266;2023-05-07T05:31:10;7.60;;;5.60;;
77359;SDS011;66426;51.454;7.266;2023-05-07T05:32:11;10.55;;;6.97;;
77359;SDS011;66426;51.454;7.266;2023-05-07T05:33:11;15.25;;;7.40;;
77359;SDS011;66426;51.454;7.266;2023-05-07T05:34:12;9.68;;;6.22;;
77359;SDS011;66426;51.454;7.266;2023-05-07T05:35:13;10.75;;;6.68;;
77359;SDS011;66426;51.454;7.266;2023-05-07T05:36:14;9.70;;;6.50;;
77359;SDS011;66426;51.454;7.266;2023-05-07T05:37:15;9.95;;;6.55;;
77359;SDS011;66426;51.454;7.266;2023-05-07T05:38:16;9.55;;;6.07;;
77359;SDS011;66426;51.454;7.266;2023-05-07T05:39:17;8.02;;;5.90;;
77359;SDS011;66426;51.454;7.266;2023-05-07T05:40:18;9.45;;;6.85;;
77359;SDS011;66426;51.454;7.266;2023-05-07T05:41:19;7.93;;;5.85;;
77359;SDS011;66426;51.454;7.266;2023-05-07T05:42:21;9.73;;;6.28;;
77359;SDS011;66426;51.454;7.266;2023-05-07T05:43:23;8.73;;;6.03;;
77359;SDS011;66426;51.454;7.266;2023-05-07T05:44:24;7.47;;;5.85;;
77359;SDS011;66426;51.454;7.266;2023-05-07T05:45:25;8.20;;;6.30;;
77359;SDS011;66426;51.454;7.266;2023-05-07T05:46:26;9.27;;;6.35;;
77359;SDS011;66426;51.454;7.266;2023-05-07T05:47:27;10.55;;;5.68;;
77359;SDS011;66426;51.454;7.266;2023-05-07T05:48:28;8.23;;;5.80;;
77359;SDS011;66426;51.454;7.266;2023-05-07T05:49:29;13.07;;;6.28;;
77359;SDS011;66426;51.454;7.266;2023-05-07T05:50:30;7.80;;;6.00;;
77359;SDS011;66426;51.454;7.266;2023-05-07T05:51:31;9.55;;;5.90;;
77359;SDS011;66426;51.454;7.266;2023-05-07T05:52:32;7.35;;;5.72;;
77359;SDS011;66426;51.454;7.266;2023-05-07T05:53:33;9.70;;;6.15;;
77359;SDS011;66426;51.454;7.266;2023-05-07T05:54:34;8.15;;;5.43;;
77359;SDS011;66426;51.454;7.266;2023-05-07T05:55:35;7.78;;;6.05;;
77359;SDS011;66426;51.454;7.266;2023-05-07T05:56:36;8.10;;;5.72;;
77359;SDS011;66426;51.454;7.266;2023-05-07T05:57:37;10.82;;;5.45;;
77359;SDS011;66426;51.454;7.266;2023-05-07T05:58:39;10.35;;;5.57;;
77359;SDS011;66426;51.454;7.266;2023-05-07T05:59:41;8.57;;;5.10;;
77359;SDS011;66426;51.454;7.266;2023-05-07T06:00:42;8.18;;;5.80;;
77359;SDS011;66426;51.454;7.266;2023-05-07T06:01:43;9.13;;;5.20;;
77359;SDS011;66426;51.454;7.266;2023-05-07T06:02:43;8.20;;;5.57;;
77359;SDS011;66426;51.454;7.266;2023-05-07T06:03:44;6.78;;;4.57;;
77359;SDS011;66426;51.454;7.266;2023-05-07T06:04:45;8.82;;;4.82;;
77359;SDS011;66426;51.454;7.266;2023-05-07T06:05:46;6.53;;;4.80;;
77359;SDS011;66426;51.454;7.266;2023-05-07T06:06:47;7.93;;;5.20;;
77359;SDS011;66426;51.454;7.266;2023-05-07T06:07:48;6.32;;;4.32;;
77359;SDS011;66426;51.454;7.266;2023-05-07T06:08:49;7.50;;;4.53;;
77359;SDS011;66426;51.454;7.266;2023-05-07T06:09:50;7.13;;;4.63;;